Nunam Iqua, Alaska
Current Conditions -  °F | °C
As of 4:16 AM on Monday 22 Dec 2014 (Local Time) from PAEM Reporting Station
Overcast Overcast  
Wind Chill:   Ceiling: 2100
Heat Index: 10°   Visibility: 10mi
Dew Point:   Wind: 7mph
Humidity: 79%   Direction: 330°NNW
Pressure: 29.87"   Gusts: NA
Location:  62.5092°N, 164.453°W
Report Text: PAEM 221316Z AUTO 33006KT 10SM OVC021 M12/M15 A2987 RMK AO1
Loading
Personal Weather Stations






























Interactive Weather Map New forecast layout! Learn more

10-Day Weather Forecast

Advertisements
Track Severe Weather on mobile